地図

経路データ

SID SEASON NUMBER BASIN SUBBASIN NAME ISO_TIME NATURE LAT LON WMO_WIND WMO_PRES WMO_AGENCY TRACK_TYPE DIST2LAND LANDFALL IFLAG USA_AGENCY USA_ATCF_ID USA_LAT USA_LON USA_RECORD USA_STATUS USA_WIND USA_PRES USA_SSHS USA_R34_NE USA_R34_SE USA_R34_SW USA_R34_NW USA_R50_NE USA_R50_SE USA_R50_SW USA_R50_NW USA_R64_NE USA_R64_SE USA_R64_SW USA_R64_NW USA_POCI USA_ROCI USA_RMW USA_EYE TOKYO_LAT TOKYO_LON TOKYO_GRADE TOKYO_WIND TOKYO_PRES TOKYO_R50_DIR TOKYO_R50_LONG TOKYO_R50_SHORT TOKYO_R30_DIR TOKYO_R30_LONG TOKYO_R30_SHORT TOKYO_LAND CMA_LAT CMA_LON CMA_CAT CMA_WIND CMA_PRES HKO_LAT HKO_LON HKO_CAT HKO_WIND HKO_PRES NEWDELHI_LAT NEWDELHI_LON NEWDELHI_GRADE NEWDELHI_WIND NEWDELHI_PRES NEWDELHI_CI NEWDELHI_DP NEWDELHI_POCI REUNION_LAT REUNION_LON REUNION_TYPE REUNION_WIND REUNION_PRES REUNION_TNUM REUNION_CI REUNION_RMW REUNION_R34_NE REUNION_R34_SE REUNION_R34_SW REUNION_R34_NW REUNION_R50_NE REUNION_R50_SE REUNION_R50_SW REUNION_R50_NW REUNION_R64_NE REUNION_R64_SE REUNION_R64_SW REUNION_R64_NW BOM_LAT BOM_LON BOM_TYPE BOM_WIND BOM_PRES BOM_TNUM BOM_CI BOM_RMW BOM_R34_NE BOM_R34_SE BOM_R34_SW BOM_R34_NW BOM_R50_NE BOM_R50_SE BOM_R50_SW BOM_R50_NW BOM_R64_NE BOM_R64_SE BOM_R64_SW BOM_R64_NW BOM_ROCI BOM_POCI BOM_EYE BOM_POS_METHOD BOM_PRES_METHOD NADI_LAT NADI_LON NADI_CAT NADI_WIND NADI_PRES WELLINGTON_LAT WELLINGTON_LON WELLINGTON_WIND WELLINGTON_PRES DS824_LAT DS824_LON DS824_STAGE DS824_WIND DS824_PRES TD9636_LAT TD9636_LON TD9636_STAGE TD9636_WIND TD9636_PRES TD9635_LAT TD9635_LON TD9635_WIND TD9635_PRES TD9635_ROCI NEUMANN_LAT NEUMANN_LON NEUMANN_CLASS NEUMANN_WIND NEUMANN_PRES MLC_LAT MLC_LON MLC_CLASS MLC_WIND MLC_PRES USA_GUST BOM_GUST BOM_GUST_PER REUNION_GUST REUNION_GUST_PER USA_SEAHGT USA_SEARAD_NE USA_SEARAD_SE USA_SEARAD_SW USA_SEARAD_NW STORM_SPEED STORM_DIR
1983283N13230 1983 71 EP MM SONIA 1983-10-09 18:00:00 TS 13.4000 -130.200 30 hurdat_epa main 2245 2244 O_________O___ hurdat_epa EP181983 13.4000 -130.200 TD 30 -1 13.4000 -130.200 1 30 9 297
1983283N13230 1983 71 EP MM SONIA 1983-10-09 21:00:00 TS 13.5978 -130.593 main 2258 2257 P_________P___ EP181983 13.5976 -130.592 TD 32 -1 13.5984 -130.593 1 32 9 297
1983283N13230 1983 71 EP MM SONIA 1983-10-10 00:00:00 TS 13.8000 -131.000 35 hurdat_epa main 2271 2271 O_________O___ hurdat_epa EP181983 13.8000 -131.000 TS 35 0 13.8000 -131.000 2 35 9 297
1983283N13230 1983 71 EP MM SONIA 1983-10-10 03:00:00 TS 14.0068 -131.434 main 2286 2286 P_________P___ EP181983 14.0074 -131.435 TS 35 0 14.0050 -131.432 2 35 10 295
1983283N13230 1983 71 EP MM SONIA 1983-10-10 06:00:00 TS 14.2002 -131.898 35 hurdat_epa main 2309 2309 O_________P___ hurdat_epa EP181983 14.2000 -131.900 TS 35 0 14.2007 -131.892 2 35 10 292
1983283N13230 1983 71 EP MM SONIA 1983-10-10 09:00:00 TS 14.3720 -132.378 main 2333 2333 P_________P___ EP181983 14.3723 -132.378 TS 35 0 14.3711 -132.381 2 35 10 287
1983283N13230 1983 71 EP MM SONIA 1983-10-10 12:00:00 TS 14.5000 -132.900 35 hurdat_epa main 2366 2338 O_________O___ hurdat_epa EP181983 14.5000 -132.900 TS 35 0 14.5000 -132.900 2 35 11 281
1983283N13230 1983 71 EP MM SONIA 1983-10-10 15:00:00 TS 14.5754 -133.480 main 2328 2276 P_________P___ EP181983 14.5725 -133.493 TS 35 0 14.5842 -133.442 2 33 11 275
1983283N13230 1983 71 EP MM SONIA 1983-10-10 18:00:00 TS 14.6062 -134.078 35 hurdat_epa main 2266 2215 O_________P___ hurdat_epa EP181983 14.6000 -134.100 TS 35 0 14.6247 -134.013 2 32 11 272
1983283N13230 1983 71 EP MM SONIA 1983-10-10 21:00:00 TS 14.6236 -134.632 main 2215 2153 P_________P___ EP181983 14.6222 -134.642 TS 32 -1 14.6279 -134.602 2 31 11 270
1983283N13230 1983 71 EP MM SONIA 1983-10-11 00:00:00 TS 14.6000 -135.200 30 hurdat_epa main 2153 2095 O_________O___ hurdat_epa EP181983 14.6000 -135.200 TD 30 -1 14.6000 -135.200 1 30 12 265
1983283N13230 1983 71 EP MM SONIA 1983-10-11 03:00:00 TS 14.5201 -135.838 main 2095 2037 P_________P___ EP181983 14.5076 -135.850 TD 30 -1 14.5576 -135.801 1 30 13 262
1983283N13230 1983 71 EP MM SONIA 1983-10-11 06:00:00 TS 14.4218 -136.477 30 hurdat_epa main 2027 1976 O_________P___ hurdat_epa EP181983 14.4000 -136.500 TD 30 -1 14.4872 -136.408 1 30 12 262
1983283N13230 1983 71 EP MM SONIA 1983-10-11 09:00:00 TS 14.3563 -137.057 main 1966 1919 P_________P___ EP181983 14.3423 -137.072 TD 30 -1 14.3982 -137.010 1 30 11 264
1983283N13230 1983 71 EP MM SONIA 1983-10-11 12:00:00 TS 14.3000 -137.600 30 hurdat_epa main 1919 1868 O_________O___ hurdat_epa EP181983 14.3000 -137.600 TD 30 -1 14.3000 -137.600 1 30 10 264
1983283N13230 1983 71 EP MM SONIA 1983-10-11 15:00:00 TS 14.2543 -138.111 main 1868 1822 P_________P___ EP181983 14.2647 -138.092 TD 27 -1 14.2229 -138.168 1 27 10 263
1983283N13230 1983 71 EP MM SONIA 1983-10-11 18:00:00 TS 14.1842 -138.630 25 hurdat_epa main 1822 1766 O_________P___ hurdat_epa EP181983 14.2000 -138.600 TD 25 -1 14.1369 -138.722 1 25 11 260
1983283N13230 1983 71 EP MM SONIA 1983-10-11 21:00:00 TS 14.0625 -139.211 main 1766 1715 P_________P___ EP181983 14.0725 -139.193 TD 22 -1 14.0324 -139.265 1 22 12 256
1983283N13230 1983 71 EP MM SONIA 1983-10-12 00:00:00 TS 13.9000 -139.800 20 hurdat_epa main 1715 1675 O_________O___ hurdat_epa EP181983 13.9000 -139.800 TD 20 -1 13.9000 -139.800 1 20 12 253
1983283N13230 1983 71 EP CP SONIA 1983-10-12 03:00:00 TS 13.7126 -140.356 main 1665 1626 P_________P___ EP181983 13.7074 -140.365 TD 20 -1 13.7283 -140.328 1 21 11 251
1983283N13230 1983 71 EP CP SONIA 1983-10-12 06:00:00 TS 13.5363 -140.894 20 hurdat_epa main 1626 1583 O_________P___ hurdat_epa EP181983 13.5000 -140.900 TD 20 -1 13.5294 -140.850 1 22 11 251
1983283N13230 1983 71 EP CP SONIA 1983-10-12 09:00:00 TS 13.3531 -141.405 main 1583 1545 P_________P___ EP181983 13.2998 -141.400 TD 22 -1 13.3158 -141.372 1 23 11 249
1983283N13230 1983 71 EP CP SONIA 1983-10-12 12:00:00 TS 13.1632 -141.916 25 hurdat_epa main 1545 1509 O_________O___ hurdat_epa EP181983 13.1000 -141.900 TD 25 -1 13.1000 -141.900 1 25 11 249
1983283N13230 1983 71 EP CP SONIA 1983-10-12 15:00:00 TS 12.9705 -142.448 main 1509 1465 P_________P___ EP181983 12.8999 -142.442 TD 27 -1 12.8953 -142.418 1 27 11 249
1983283N13230 1983 71 EP CP SONIA 1983-10-12 18:00:00 TS 12.7583 -142.989 30 hurdat_epa main 1465 1432 O_________P___ hurdat_epa EP181983 12.7000 -143.000 TD 30 -1 12.6915 -142.947 1 30 11 248
1983283N13230 1983 71 EP CP SONIA 1983-10-12 21:00:00 TS 12.5442 -143.521 main 1439 1399 P_________P___ EP181983 12.5072 -143.527 TD 32 -1 12.4920 -143.503 1 32 12 248
1983283N13230 1983 71 EP CP SONIA 1983-10-13 00:00:00 TS 12.3200 -144.100 35 hurdat_epa main 1399 1361 O_________O___ hurdat_epa EP181983 12.3000 -144.100 TS 35 0 12.3000 -144.100 2 35 13 248
1983283N13230 1983 71 EP CP SONIA 1983-10-13 03:00:00 TS 12.0561 -144.774 main 1352 1316 P_________P___ EP181983 12.0350 -144.778 TS 35 0 12.1056 -144.757 2 35 15 250
1983283N13230 1983 71 EP CP SONIA 1983-10-13 06:00:00 TS 11.8240 -145.491 35 hurdat_epa main 1316 1276 O_________P___ hurdat_epa EP181983 11.8000 -145.500 TS 35 0 11.9199 -145.455 2 35 14 255
1983283N13230 1983 71 EP CP SONIA 1983-10-13 09:00:00 TS 11.6962 -146.189 main 1268 1222 P_________P___ EP181983 11.6848 -146.192 TS 35 0 11.7493 -146.176 2 35 14 261
1983283N13230 1983 71 EP CP SONIA 1983-10-13 12:00:00 TS 11.6000 -146.900 35 hurdat_epa main 1222 1179 O_________O___ hurdat_epa EP181983 11.6000 -146.900 TS 35 0 11.6000 -146.900 2 35 15 260
1983283N13230 1983 71 EP CP SONIA 1983-10-13 15:00:00 TS 11.4513 -147.657 main 1172 1141 P_________P___ EP181983 11.4425 -147.658 TS 35 0 11.4868 -147.652 2 36 15 259
1983283N13230 1983 71 EP CP SONIA 1983-10-13 18:00:00 TS 11.3186 -148.399 35 hurdat_epa main 1141 1096 O_________P___ hurdat_epa EP181983 11.3000 -148.400 TS 35 0 11.3930 -148.397 2 37 14 262
1983283N13230 1983 71 EP CP SONIA 1983-10-13 21:00:00 TS 11.2545 -149.099 main 1096 1070 P_________P___ EP181983 11.2425 -149.102 TS 37 0 11.3026 -149.093 2 38 13 265
1983283N13230 1983 71 EP CP SONIA 1983-10-14 00:00:00 TS 11.2000 -149.700 40 hurdat_epa main 1070 1053 O_________O___ hurdat_epa EP181983 11.2000 -149.700 TS 40 0 11.2000 -149.700 2 40 10 262
1983283N13230 1983 71 EP CP SONIA 1983-10-14 03:00:00 TS 11.1170 -150.157 main 1052 1042 P_________P___ EP181983 11.1223 -150.145 TS 40 0 11.0960 -150.158 2 40 8 256
1983283N13230 1983 71 EP CP SONIA 1983-10-14 06:00:00 TS 10.9948 -150.526 40 hurdat_epa main 1045 1038 O_________P___ hurdat_epa EP181983 11.0000 -150.500 TS 40 0 10.9739 -150.528 2 40 8 248
1983283N13230 1983 71 EP CP SONIA 1983-10-14 09:00:00 TS 10.8269 -150.875 main 1043 1037 P_________P___ EP181983 10.8299 -150.850 TS 40 0 10.8150 -150.859 2 40 8 240
1983283N13230 1983 71 EP CP SONIA 1983-10-14 12:00:00 TS 10.6000 -151.220 40 hurdat_epa main 1047 1042 O_________O___ hurdat_epa EP181983 10.6000 -151.200 TS 40 0 10.6000 -151.200 2 40 9 234
1983283N13230 1983 71 EP CP SONIA 1983-10-14 15:00:00 TS 10.3159 -151.599 main 1058 1054 P_________P___ EP181983 10.3151 -151.588 TS 32 -1 10.3190 -151.586 2 32 10 232
1983283N13230 1983 71 EP CP SONIA 1983-10-14 18:00:00 TS 10.0000 -152.000 25 hurdat_epa main 1072 O_________O___ hurdat_epa EP181983 10.0000 -152.000 TD 25 -1 10.0000 -152.000 1 25 10 231

IBTrACS Databaseについて

本データベースは、米国NOAAが公開する1842年以降の世界の熱帯低気圧のベストトラックデータアーカイブInternational Best Track Archive for Climate Stewardship (IBTrACS)を、ウェブで閲覧しやすい形式に変換したものです。

最終更新日:2021-10-21